createdAt,value
2022-08-31T00:04:02.910Z,100694.94
2022-08-31T00:09:06.410Z,100693.34
2022-08-31T00:14:13.401Z,100691.97
2022-08-31T00:19:15.208Z,100687.88
2022-08-31T00:24:16.784Z,100686.66
2022-08-31T00:29:18.361Z,100686.50
2022-08-31T00:34:20.006Z,100695.56
2022-08-31T00:39:22.409Z,100699.00
2022-08-31T00:44:24.059Z,100696.41
2022-08-31T00:49:28.966Z,100697.59
2022-08-31T00:54:35.739Z,100702.28
2022-08-31T00:59:38.367Z,100694.53
2022-08-31T01:04:40.413Z,100705.78
2022-08-31T01:09:52.675Z,100708.31
2022-08-31T01:14:57.737Z,100703.91
2022-08-31T01:20:08.353Z,100714.34
2022-08-31T01:25:10.335Z,100716.19
2022-08-31T01:30:15.375Z,100718.25
2022-08-31T01:35:17.611Z,100711.75
2022-08-31T01:40:19.446Z,100709.47
2022-08-31T01:45:21.175Z,100712.38
2022-08-31T01:50:22.847Z,100717.56
2022-08-31T01:55:24.617Z,100715.13
2022-08-31T02:00:28.276Z,100711.25
2022-08-31T02:05:29.913Z,100712.75
2022-08-31T02:10:31.751Z,100703.56
2022-08-31T02:15:33.450Z,100700.91
2022-08-31T02:20:35.343Z,100703.88
2022-08-31T02:25:36.997Z,100690.09
2022-08-31T02:30:38.848Z,100692.66
2022-08-31T02:35:41.797Z,100680.91
2022-08-31T02:40:44.246Z,100681.97
2022-08-31T02:45:50.894Z,100687.19
2022-08-31T02:51:05.243Z,100687.56
2022-08-31T02:56:08.040Z,100684.31
2022-08-31T03:01:10.735Z,100687.56
2022-08-31T03:06:12.555Z,100681.66
2022-08-31T03:11:15.263Z,100678.59
2022-08-31T03:16:17.417Z,100672.69
2022-08-31T03:21:19.189Z,100672.97
2022-08-31T03:26:20.936Z,100679.16
2022-08-31T03:31:24.412Z,100680.47
2022-08-31T03:36:26.961Z,100683.47
2022-08-31T03:41:28.597Z,100680.41
2022-08-31T03:46:31.809Z,100686.22
2022-08-31T03:51:33.504Z,100685.59
2022-08-31T03:56:36.219Z,100683.66
2022-08-31T04:01:39.397Z,100695.25
2022-08-31T04:06:59.703Z,100687.63
2022-08-31T04:12:19.783Z,100699.22
2022-08-31T04:17:45.338Z,100697.66
2022-08-31T04:23:18.366Z,100696.69
2022-08-31T04:28:24.737Z,100700.88
2022-08-31T04:33:26.311Z,100712.00
2022-08-31T04:38:28.003Z,100708.06
2022-08-31T04:43:30.780Z,100713.75
2022-08-31T04:48:33.187Z,100726.75
2022-08-31T04:53:36.297Z,100723.91
2022-08-31T04:58:38.026Z,100726.16
2022-08-31T05:03:40.764Z,100733.03
2022-08-31T05:08:44.251Z,100735.00
2022-08-31T05:13:45.908Z,100747.75
2022-08-31T05:18:49.810Z,100751.34
2022-08-31T05:23:51.778Z,100741.22
2022-08-31T05:28:53.841Z,100749.97
2022-08-31T05:33:56.411Z,100745.72
2022-08-31T05:39:11.678Z,100749.56
2022-08-31T05:44:13.807Z,100756.28
2022-08-31T05:49:16.140Z,100755.78
2022-08-31T05:54:19.485Z,100759.88
2022-08-31T05:59:21.588Z,100772.13
2022-08-31T06:04:23.263Z,100773.59
2022-08-31T06:09:24.934Z,100782.41
2022-08-31T06:14:26.987Z,100773.34
2022-08-31T06:19:30.093Z,100783.63
2022-08-31T06:24:31.788Z,100786.53
2022-08-31T06:29:34.979Z,100789.31
2022-08-31T06:34:37.863Z,100788.03
2022-08-31T06:39:39.544Z,100791.00
2022-08-31T06:44:43.990Z,100792.50
2022-08-31T06:49:53.739Z,100800.06
2022-08-31T06:54:56.245Z,100803.88
2022-08-31T07:00:27.868Z,100802.03
2022-08-31T07:05:39.816Z,100817.25
2022-08-31T07:10:42.365Z,100815.22
2022-08-31T07:15:43.991Z,100817.16
2022-08-31T07:20:46.058Z,100813.06
2022-08-31T07:25:48.570Z,100814.94
2022-08-31T07:30:50.412Z,100809.31
2022-08-31T07:35:53.154Z,100815.53
2022-08-31T07:41:21.125Z,100812.38
2022-08-31T07:46:23.002Z,100819.09
2022-08-31T07:51:26.887Z,100822.44
2022-08-31T07:56:52.816Z,100820.16
2022-08-31T08:01:56.604Z,100814.28
2022-08-31T08:07:00.728Z,100822.69
2022-08-31T08:12:24.055Z,100812.03
2022-08-31T08:17:42.933Z,100814.50
2022-08-31T08:22:55.755Z,100814.47
2022-08-31T08:28:22.859Z,100820.59
2022-08-31T08:33:31.233Z,100820.72
2022-08-31T08:38:36.048Z,100833.19
2022-08-31T08:43:40.983Z,100825.69
2022-08-31T08:48:47.070Z,100827.94
2022-08-31T08:54:05.022Z,100837.38
2022-08-31T08:59:15.968Z,100831.28
2022-08-31T09:04:32.702Z,100833.03
2022-08-31T09:09:57.208Z,100836.44
2022-08-31T09:15:05.052Z,100829.75
2022-08-31T09:20:08.342Z,100832.72
2022-08-31T09:25:09.994Z,100840.19
2022-08-31T09:30:43.803Z,100836.53
2022-08-31T09:35:45.683Z,100827.34
2022-08-31T09:40:49.835Z,100822.59
2022-08-31T09:46:02.963Z,100820.81
2022-08-31T09:51:04.832Z,100828.13
2022-08-31T09:56:17.495Z,100826.50
2022-08-31T10:01:27.128Z,100831.09
2022-08-31T10:06:41.656Z,100822.72
2022-08-31T10:11:45.163Z,100817.94
2022-08-31T10:16:52.352Z,100816.34
2022-08-31T10:21:59.937Z,100808.09
2022-08-31T10:27:20.739Z,100814.78
2022-08-31T10:32:47.373Z,100818.03
2022-08-31T10:38:08.399Z,100807.72
2022-08-31T10:43:38.930Z,100812.28
2022-08-31T10:48:50.930Z,100807.28
2022-08-31T10:54:05.107Z,100817.88
2022-08-31T10:59:25.315Z,100804.19
2022-08-31T11:04:43.115Z,100818.81
2022-08-31T11:10:26.447Z,100813.06
2022-08-31T11:15:49.856Z,100804.09
2022-08-31T11:21:07.869Z,100810.41
2022-08-31T11:26:24.054Z,100810.41
2022-08-31T11:31:30.268Z,100803.28
2022-08-31T11:36:54.977Z,100801.59
2022-08-31T11:41:59.120Z,100797.81
2022-08-31T11:47:09.266Z,100810.38
2022-08-31T11:52:29.523Z,100795.31
2022-08-31T11:57:35.615Z,100799.09
2022-08-31T12:02:42.159Z,100793.81
2022-08-31T12:07:48.263Z,100790.69
2022-08-31T12:12:55.202Z,100790.72
2022-08-31T12:18:12.552Z,100786.16
2022-08-31T12:23:35.971Z,100781.97
2022-08-31T12:29:15.278Z,100785.47
2022-08-31T12:34:19.764Z,100784.03
2022-08-31T12:39:27.851Z,100776.47
2022-08-31T12:44:32.385Z,100780.31
2022-08-31T12:49:51.378Z,100773.19
2022-08-31T12:55:16.784Z,100775.25
2022-08-31T13:00:30.689Z,100773.63
2022-08-31T13:05:34.937Z,100769.16
2022-08-31T13:10:38.292Z,100774.81
2022-08-31T13:15:42.594Z,100768.56
2022-08-31T13:20:46.575Z,100761.00
2022-08-31T13:26:03.310Z,100758.50
2022-08-31T13:31:11.948Z,100759.94
2022-08-31T13:36:25.544Z,100753.06
2022-08-31T13:41:34.988Z,100763.16
2022-08-31T13:46:44.496Z,100749.66
2022-08-31T13:51:46.849Z,100749.03
2022-08-31T13:57:01.779Z,100757.59
2022-08-31T14:02:16.182Z,100741.97
2022-08-31T14:07:23.739Z,100753.66
2022-08-31T14:12:37.229Z,100747.78
2022-08-31T14:18:24.001Z,100742.56
2022-08-31T14:23:29.235Z,100743.00
2022-08-31T14:28:41.091Z,100744.06
2022-08-31T14:33:43.689Z,100738.84
2022-08-31T14:38:46.582Z,100741.75
2022-08-31T14:43:48.352Z,100740.91
2022-08-31T14:48:50.277Z,100743.88
2022-08-31T14:53:57.117Z,100743.41
2022-08-31T14:59:02.851Z,100734.59
2022-08-31T15:04:05.601Z,100733.13
2022-08-31T15:09:07.970Z,100735.03
2022-08-31T15:14:12.574Z,100740.03
2022-08-31T15:19:14.951Z,100729.31
2022-08-31T15:24:21.487Z,100728.31
2022-08-31T15:29:24.896Z,100737.50
2022-08-31T15:34:30.262Z,100736.06
2022-08-31T15:39:40.370Z,100729.09
2022-08-31T15:44:42.735Z,100724.50
2022-08-31T15:49:44.498Z,100720.75
2022-08-31T15:54:47.036Z,100716.34
2022-08-31T15:59:48.933Z,100712.16
2022-08-31T16:04:51.924Z,100708.56
2022-08-31T16:09:53.531Z,100706.84
2022-08-31T16:14:55.228Z,100715.03
2022-08-31T16:19:56.763Z,100704.09
2022-08-31T16:24:58.902Z,100711.47
2022-08-31T16:30:00.590Z,100706.50
2022-08-31T16:35:03.692Z,100706.44
2022-08-31T16:40:05.992Z,100710.19
2022-08-31T16:45:08.041Z,100704.97
2022-08-31T16:50:09.800Z,100704.75
2022-08-31T16:55:13.033Z,100698.88
2022-08-31T17:00:15.002Z,100693.66
2022-08-31T17:05:16.602Z,100687.31
2022-08-31T17:10:18.580Z,100700.97
2022-08-31T17:15:20.726Z,100707.00
2022-08-31T17:20:22.332Z,100714.69
2022-08-31T17:25:24.588Z,100715.88
2022-08-31T17:30:26.251Z,100722.81
2022-08-31T17:35:27.892Z,100722.00
2022-08-31T17:40:29.516Z,100722.59
2022-08-31T17:45:31.354Z,100720.97
2022-08-31T17:50:32.915Z,100721.75
2022-08-31T17:55:34.563Z,100725.53
2022-08-31T18:00:36.191Z,100726.97
2022-08-31T18:05:43.642Z,100733.38
2022-08-31T18:10:52.701Z,100735.13
2022-08-31T18:15:55.187Z,100743.84
2022-08-31T18:20:56.983Z,100757.59
2022-08-31T18:25:58.597Z,100752.13
2022-08-31T18:31:07.556Z,100744.22
2022-08-31T18:36:11.814Z,100750.31
2022-08-31T18:41:31.970Z,100753.22
2022-08-31T18:46:33.760Z,100752.97
2022-08-31T18:51:36.812Z,100753.81
2022-08-31T18:56:38.505Z,100764.69
2022-08-31T19:01:40.236Z,100763.59
2022-08-31T19:06:42.170Z,100756.72
2022-08-31T19:11:51.301Z,100768.81
2022-08-31T19:16:53.789Z,100753.31
2022-08-31T19:22:06.239Z,100757.47
2022-08-31T19:27:09.257Z,100759.19
2022-08-31T19:32:10.898Z,100762.31
2022-08-31T19:37:13.636Z,100752.84
2022-08-31T19:42:16.346Z,100757.31
2022-08-31T19:47:25.238Z,100756.75
2022-08-31T19:52:26.922Z,100750.31
2022-08-31T19:57:28.562Z,100751.56
2022-08-31T20:02:30.292Z,100743.78
2022-08-31T20:07:35.713Z,100743.72
2022-08-31T20:12:39.453Z,100752.59
2022-08-31T20:17:41.393Z,100752.28
2022-08-31T20:22:45.026Z,100749.47
2022-08-31T20:27:46.567Z,100747.88
2022-08-31T20:32:52.163Z,100752.94
2022-08-31T20:37:53.946Z,100753.88
2022-08-31T20:42:56.364Z,100751.16
2022-08-31T20:48:16.463Z,100749.63
2022-08-31T20:53:42.132Z,100749.03
2022-08-31T20:58:43.258Z,100763.94
2022-08-31T21:03:44.845Z,100750.69
2022-08-31T21:08:46.506Z,100756.97
2022-08-31T21:13:50.041Z,100746.28
2022-08-31T21:18:52.401Z,100748.78
2022-08-31T21:23:54.020Z,100752.28
2022-08-31T21:28:56.651Z,100758.22
2022-08-31T21:34:01.349Z,100750.47
2022-08-31T21:39:05.781Z,100759.13
2022-08-31T21:44:08.056Z,100760.50
2022-08-31T21:49:10.657Z,100759.75
2022-08-31T21:54:14.392Z,100757.59
2022-08-31T21:59:17.620Z,100748.63
2022-08-31T22:04:20.983Z,100767.81
2022-08-31T22:09:24.240Z,100768.94
2022-08-31T22:14:29.641Z,100760.25
2022-08-31T22:19:37.652Z,100760.63
2022-08-31T22:24:42.094Z,100764.75
2022-08-31T22:29:44.138Z,100771.09
2022-08-31T22:34:46.194Z,100766.22
2022-08-31T22:39:48.099Z,100764.47
2022-08-31T22:44:50.163Z,100767.00
2022-08-31T22:49:51.830Z,100756.91
2022-08-31T22:54:54.047Z,100760.94
2022-08-31T22:59:55.846Z,100761.69
2022-08-31T23:04:57.948Z,100760.66
2022-08-31T23:09:59.542Z,100764.66
2022-08-31T23:15:01.195Z,100763.53
2022-08-31T23:20:06.716Z,100769.44
2022-08-31T23:25:08.580Z,100770.34
2022-08-31T23:30:11.450Z,100769.28
2022-08-31T23:35:18.446Z,100761.38
2022-08-31T23:40:20.176Z,100754.31
2022-08-31T23:45:21.988Z,100759.81
2022-08-31T23:50:24.665Z,100750.09
2022-08-31T23:55:29.012Z,100746.06
